Time;durP1;ratioP1;P1;durP2;ratioP2;P2;SDS_P1;SDS_P2;PMS_P1;PMS_P2;Temp;Humidity;BMP_temperature;BMP_pressure;BME280_temperature;BME280_humidity;BME280_pressure;Samples;Min_cycle;Max_cycle;Signal;HPM_P1;HPM_P2
2022/01/11 00:00:57;;;;;;;4.22;3.92;;;16.20;70.10;;;;;;5018583;28;20056;-20
2022/01/11 00:03:23;;;;;;;3.53;3.33;;;16.20;70.10;;;;;;5017937;28;20156;-20
2022/01/11 00:06:00;;;;;;;3.08;2.88;;;16.20;70.10;;;;;;5018359;28;20069;-21
2022/01/11 00:08:33;;;;;;;4.05;3.00;;;16.20;70.10;;;;;;5017914;28;20049;-21
2022/01/11 00:11:04;;;;;;;3.70;3.42;;;16.20;70.10;;;;;;5017342;28;20051;-20
2022/01/11 00:13:30;;;;;;;3.22;3.03;;;16.20;69.90;;;;;;4997976;28;20053;-19
2022/01/11 00:15:56;;;;;;;3.80;3.50;;;16.20;69.80;;;;;;4998775;28;20081;-19
2022/01/11 00:18:21;;;;;;;8.30;3.20;;;16.20;69.90;;;;;;5008493;28;20462;-19
2022/01/11 00:20:47;;;;;;;3.15;3.03;;;16.20;69.80;;;;;;5017961;28;20049;-18
2022/01/11 00:25:43;;;;;;;2.90;2.70;;;16.20;69.90;;;;;;5016577;28;20058;-19
2022/01/11 00:28:10;;;;;;;3.03;2.83;;;16.20;69.80;;;;;;5018087;28;20050;-21
2022/01/11 00:30:38;;;;;;;3.65;3.40;;;16.20;69.70;;;;;;5017260;28;20049;-21
2022/01/11 00:33:09;;;;;;;3.42;3.08;;;16.20;69.70;;;;;;5017440;28;20045;-18
2022/01/11 00:35:42;;;;;;;3.33;3.03;;;16.20;69.80;;;;;;5017192;28;20045;-21
2022/01/11 00:38:09;;;;;;;3.60;3.30;;;16.10;69.80;;;;;;5018024;28;20514;-21
2022/01/11 00:40:35;;;;;;;2.83;2.63;;;16.20;69.80;;;;;;5017316;28;20038;-20
2022/01/11 00:43:01;;;;;;;3.20;2.90;;;16.20;69.80;;;;;;5017672;28;20044;-20
2022/01/11 00:45:27;;;;;;;2.75;2.58;;;16.10;69.80;;;;;;5015508;28;20046;-20
2022/01/11 00:47:53;;;;;;;2.85;2.65;;;16.10;69.80;;;;;;5017539;28;20564;-20
2022/01/11 00:50:19;;;;;;;2.97;2.78;;;16.20;69.80;;;;;;5017778;28;20088;-20
2022/01/11 00:52:45;;;;;;;2.83;2.63;;;16.10;69.70;;;;;;5016618;28;20076;-19
2022/01/11 00:55:10;;;;;;;3.00;2.80;;;16.10;69.60;;;;;;5016958;28;20109;-20
2022/01/11 00:57:36;;;;;;;2.95;2.75;;;16.10;69.60;;;;;;5016507;28;20045;-21
2022/01/11 01:00:07;;;;;;;2.83;2.63;;;16.20;69.70;;;;;;5017520;28;20049;-21
2022/01/11 01:02:33;;;;;;;2.10;2.00;;;16.10;69.60;;;;;;5017388;28;20414;-22
2022/01/11 01:04:59;;;;;;;2.78;2.67;;;16.10;69.60;;;;;;5017391;28;20053;-21
2022/01/11 01:07:25;;;;;;;2.90;2.70;;;16.10;69.60;;;;;;5016592;28;20498;-22
2022/01/11 01:12:25;;;;;;;2.53;2.42;;;16.10;69.60;;;;;;5016503;28;20052;-18
2022/01/11 01:14:50;;;;;;;2.53;2.40;;;16.20;69.40;;;;;;5017257;28;20050;-20
2022/01/11 01:17:16;;;;;;;2.08;1.98;;;16.20;69.40;;;;;;5017065;28;20046;-19
2022/01/11 01:19:41;;;;;;;2.75;2.55;;;16.20;69.40;;;;;;5015580;28;20486;-21
2022/01/11 01:22:07;;;;;;;2.33;2.22;;;16.20;69.40;;;;;;5016793;28;20041;-21
2022/01/11 01:24:33;;;;;;;2.90;2.70;;;16.20;69.40;;;;;;5016345;28;20046;-21
2022/01/11 01:26:59;;;;;;;2.03;1.92;;;16.20;69.40;;;;;;5016544;28;20450;-21
2022/01/11 01:29:25;;;;;;;2.45;2.25;;;16.20;69.40;;;;;;5016537;28;20052;-20
2022/01/11 01:31:50;;;;;;;1.88;1.77;;;16.10;69.30;;;;;;5016335;28;20476;-21
2022/01/11 01:34:16;;;;;;;2.10;2.00;;;16.20;69.20;;;;;;5015677;28;20432;-21
2022/01/11 01:36:42;;;;;;;2.45;2.25;;;16.20;69.10;;;;;;5014761;28;20399;-19
2022/01/11 01:39:07;;;;;;;1.90;1.80;;;16.20;69.00;;;;;;5015648;28;20509;-20
2022/01/11 01:41:33;;;;;;;2.53;2.10;;;16.20;69.20;;;;;;5015542;28;20052;-21
2022/01/11 01:44:02;;;;;;;2.38;1.85;;;16.20;69.10;;;;;;5016839;28;20489;-20
2022/01/11 01:46:28;;;;;;;2.15;2.05;;;16.20;69.00;;;;;;5015698;28;20046;-21
2022/01/11 01:48:56;;;;;;;2.03;1.92;;;16.20;69.00;;;;;;5016651;28;20049;-21
2022/01/11 01:51:21;;;;;;;2.00;1.90;;;16.20;68.80;;;;;;5016311;28;20087;-19
2022/01/11 01:53:49;;;;;;;1.80;1.70;;;16.30;68.80;;;;;;5014776;28;20125;-20
2022/01/11 01:56:15;;;;;;;2.17;2.08;;;16.30;68.80;;;;;;5016412;28;20070;-19
2022/01/11 01:58:42;;;;;;;2.50;2.30;;;16.20;68.80;;;;;;5015940;28;20128;-21
2022/01/11 02:01:08;;;;;;;1.88;1.77;;;16.20;69.00;;;;;;5015785;28;20046;-20
2022/01/11 02:03:39;;;;;;;2.22;2.00;;;16.20;68.90;;;;;;5015702;28;20499;-20
2022/01/11 02:06:09;;;;;;;2.22;2.05;;;16.20;69.10;;;;;;5015172;28;20100;-21
2022/01/11 02:08:35;;;;;;;1.55;1.45;;;16.10;69.10;;;;;;5015668;28;20124;-18
2022/01/11 02:11:01;;;;;;;2.03;1.92;;;16.20;69.10;;;;;;5016135;28;20073;-21
2022/01/11 02:13:26;;;;;;;2.25;2.15;;;16.20;69.90;;;;;;5015515;28;20439;-20
2022/01/11 02:15:53;;;;;;;2.17;2.08;;;16.20;68.90;;;;;;5016276;28;20065;-20
2022/01/11 02:18:21;;;;;;;2.20;2.10;;;16.10;69.20;;;;;;5015839;28;20050;-19
2022/01/11 02:20:49;;;;;;;2.00;1.90;;;16.10;69.20;;;;;;5014822;28;20062;-21
2022/01/11 02:23:15;;;;;;;1.80;1.70;;;16.10;69.30;;;;;;5016096;28;20053;-21
2022/01/11 02:25:40;;;;;;;1.98;1.88;;;16.10;69.20;;;;;;5014713;28;20046;-19
2022/01/11 02:28:07;;;;;;;1.75;1.65;;;16.10;69.30;;;;;;5015272;28;20034;-21
2022/01/11 02:30:34;;;;;;;2.28;2.17;;;16.10;69.30;;;;;;5014901;28;20046;-24
2022/01/11 02:33:00;;;;;;;2.10;2.00;;;16.10;69.20;;;;;;5014500;28;20069;-22
2022/01/11 02:35:26;;;;;;;2.10;2.00;;;16.10;69.20;;;;;;5014852;28;20042;-22
2022/01/11 02:37:51;;;;;;;2.22;2.03;;;16.10;69.20;;;;;;5014231;28;20429;-22
2022/01/11 02:40:17;;;;;;;2.20;2.10;;;16.10;69.40;;;;;;5015270;28;20042;-21
2022/01/11 02:42:42;;;;;;;1.60;1.50;;;16.10;69.50;;;;;;5014424;28;20045;-18
2022/01/11 02:45:15;;;;;;;1.90;1.80;;;16.10;69.40;;;;;;5015228;28;20474;-21
2022/01/11 02:47:41;;;;;;;2.30;1.48;;;16.10;69.20;;;;;;5014100;28;20045;-21
2022/01/11 02:50:07;;;;;;;2.03;1.90;;;16.10;69.30;;;;;;5015174;28;20510;-21
2022/01/11 02:52:33;;;;;;;1.75;1.65;;;16.10;69.20;;;;;;5014034;28;20038;-22
2022/01/11 02:54:59;;;;;;;1.80;1.70;;;16.00;69.20;;;;;;5014810;28;20056;-20
2022/01/11 02:57:24;;;;;;;2.03;1.92;;;16.10;69.20;;;;;;5014849;28;20064;-19
2022/01/11 02:59:50;;;;;;;2.00;1.80;;;16.10;69.20;;;;;;5014228;28;20482;-20
2022/01/11 03:02:16;;;;;;;1.92;1.83;;;16.10;69.30;;;;;;5015610;28;20054;-19
2022/01/11 03:04:41;;;;;;;2.20;2.10;;;16.10;69.20;;;;;;5014779;28;20057;-21
2022/01/11 03:07:07;;;;;;;1.83;1.73;;;16.10;69.20;;;;;;5015462;28;20046;-21
2022/01/11 03:09:46;;;;;;;1.90;1.67;;;16.00;69.30;;;;;;5014283;28;20057;-21
2022/01/11 03:12:12;;;;;;;1.70;1.60;;;16.00;69.30;;;;;;5015282;28;20046;-19
2022/01/11 03:14:38;;;;;;;2.00;1.90;;;16.10;69.20;;;;;;5014853;28;20062;-20
2022/01/11 03:17:05;;;;;;;1.70;1.60;;;16.10;69.20;;;;;;5016468;28;20119;-20
2022/01/11 03:19:30;;;;;;;1.60;1.50;;;16.10;69.30;;;;;;5019406;28;20038;-21
2022/01/11 03:21:56;;;;;;;1.90;1.80;;;16.00;69.10;;;;;;5018675;28;20509;-22
2022/01/11 03:24:21;;;;;;;1.88;1.77;;;16.10;69.20;;;;;;5019441;28;20046;-19
2022/01/11 03:26:47;;;;;;;1.88;1.77;;;16.10;69.10;;;;;;5018653;28;20535;-22
2022/01/11 03:29:12;;;;;;;1.63;1.52;;;16.10;69.10;;;;;;5019204;28;20046;-23
2022/01/11 03:31:38;;;;;;;2.20;2.00;;;16.00;69.30;;;;;;5018500;28;20518;-19
2022/01/11 03:34:04;;;;;;;1.80;1.70;;;16.10;69.20;;;;;;5018802;28;20081;-19
2022/01/11 03:36:29;;;;;;;1.77;1.67;;;16.10;69.10;;;;;;5018590;28;20052;-19
2022/01/11 03:38:55;;;;;;;1.55;1.45;;;16.10;69.10;;;;;;5018055;28;20042;-20
2022/01/11 03:41:20;;;;;;;2.42;1.85;;;16.00;69.20;;;;;;5018890;28;20115;-21
2022/01/11 03:43:46;;;;;;;1.73;1.63;;;16.00;69.30;;;;;;5017344;28;20053;-20
2022/01/11 03:46:11;;;;;;;1.73;1.63;;;16.00;69.00;;;;;;5018716;28;20046;-20
2022/01/11 03:48:37;;;;;;;1.77;1.67;;;16.00;69.90;;;;;;5018422;28;20525;-19
2022/01/11 03:51:03;;;;;;;1.92;1.83;;;16.00;70.00;;;;;;5018754;28;20044;-20
2022/01/11 03:53:34;;;;;;;1.80;1.70;;;16.00;69.20;;;;;;5018781;28;20049;-18
2022/01/11 03:56:12;;;;;;;1.90;1.80;;;16.00;69.20;;;;;;5018310;28;20583;-19
2022/01/11 03:58:38;;;;;;;2.30;2.20;;;16.00;69.10;;;;;;5017680;28;20062;-21
2022/01/11 04:01:03;;;;;;;2.00;1.90;;;16.00;69.30;;;;;;5018639;28;20046;-21
2022/01/11 04:03:29;;;;;;;2.22;2.13;;;16.00;69.20;;;;;;5018473;28;20046;-20
2022/01/11 04:05:55;;;;;;;2.17;2.08;;;16.00;69.40;;;;;;5017829;28;20052;-21
2022/01/11 04:08:22;;;;;;;1.70;1.60;;;15.90;69.40;;;;;;5018114;28;20049;-21
2022/01/11 04:10:48;;;;;;;1.92;1.83;;;16.00;69.20;;;;;;5017605;28;20423;-21
2022/01/11 04:13:14;;;;;;;1.85;1.75;;;16.00;69.10;;;;;;5017853;28;20049;-21
2022/01/11 04:15:40;;;;;;;1.90;1.60;;;16.00;69.30;;;;;;5017269;28;20099;-18
2022/01/11 04:18:06;;;;;;;1.90;1.80;;;16.00;69.10;;;;;;5018137;28;20049;-18
2022/01/11 04:20:31;;;;;;;1.85;1.75;;;16.00;69.10;;;;;;5017663;28;20044;-19
2022/01/11 04:22:57;;;;;;;2.20;2.10;;;16.00;69.00;;;;;;5017677;28;20114;-21
2022/01/11 04:25:22;;;;;;;1.83;1.73;;;16.00;69.10;;;;;;5017804;28;20052;-18
2022/01/11 04:27:48;;;;;;;2.00;1.90;;;16.00;69.20;;;;;;5017068;28;20046;-19
2022/01/11 04:30:14;;;;;;;1.80;1.70;;;16.00;69.40;;;;;;5017612;28;20046;-19
2022/01/11 04:32:39;;;;;;;1.98;1.88;;;16.00;69.30;;;;;;5017291;28;20107;-18
2022/01/11 04:35:05;;;;;;;2.08;1.52;;;15.90;69.50;;;;;;5018095;28;20080;-20
2022/01/11 04:37:31;;;;;;;1.90;1.80;;;16.00;69.30;;;;;;5017783;28;20049;-21
2022/01/11 04:39:56;;;;;;;1.85;1.75;;;15.90;69.50;;;;;;5017339;28;20046;-20
2022/01/11 04:42:22;;;;;;;1.70;1.60;;;15.90;69.60;;;;;;5017845;28;20042;-19
2022/01/11 04:44:47;;;;;;;2.70;2.03;;;15.90;69.50;;;;;;5016768;28;20046;-19
2022/01/11 04:47:14;;;;;;;1.50;1.45;;;16.00;69.40;;;;;;5017822;28;20045;-19
2022/01/11 04:49:40;;;;;;;1.55;1.45;;;16.00;69.50;;;;;;5017199;28;20056;-19
2022/01/11 04:52:05;;;;;;;1.92;1.83;;;16.00;69.40;;;;;;5017026;28;20046;-21
2022/01/11 04:54:31;;;;;;;1.60;1.50;;;16.00;69.30;;;;;;5017547;28;20128;-19
2022/01/11 04:56:57;;;;;;;1.92;1.83;;;16.00;69.10;;;;;;5016671;28;20049;-20
2022/01/11 04:59:22;;;;;;;1.77;1.67;;;16.10;69.20;;;;;;5017589;28;20094;-18
2022/01/11 05:01:48;;;;;;;1.83;1.73;;;16.00;69.30;;;;;;5016938;28;20042;-21
2022/01/11 05:04:14;;;;;;;1.65;1.55;;;16.00;69.30;;;;;;5016959;28;20049;-19
2022/01/11 05:06:39;;;;;;;1.80;1.70;;;16.00;69.30;;;;;;5016574;28;20053;-20
2022/01/11 05:09:05;;;;;;;1.67;1.58;;;16.00;69.30;;;;;;5017362;28;20049;-19
2022/01/11 05:11:31;;;;;;;1.70;1.60;;;16.00;69.00;;;;;;5016497;28;20129;-20
2022/01/11 05:13:57;;;;;;;1.55;1.45;;;16.00;69.00;;;;;;5016586;28;20049;-19
2022/01/11 05:16:22;;;;;;;1.70;1.60;;;16.10;68.80;;;;;;5017244;28;20078;-19
2022/01/11 05:18:48;;;;;;;1.67;1.58;;;16.10;68.80;;;;;;5016522;28;20446;-19
2022/01/11 05:21:14;;;;;;;1.65;1.55;;;16.00;69.20;;;;;;5016975;28;20070;-21
2022/01/11 05:23:39;;;;;;;1.75;1.65;;;16.10;69.10;;;;;;5016580;28;20045;-20
2022/01/11 05:26:05;;;;;;;1.73;1.63;;;16.00;69.10;;;;;;5016516;28;20069;-20
2022/01/11 05:28:30;;;;;;;1.83;1.65;;;16.00;69.20;;;;;;5016815;28;20037;-21
2022/01/11 05:30:56;;;;;;;1.92;1.75;;;16.00;69.30;;;;;;5016040;28;20486;-21
2022/01/11 05:33:21;;;;;;;1.75;1.65;;;16.00;69.20;;;;;;5016844;28;20692;-19
2022/01/11 05:35:47;;;;;;;2.20;2.10;;;16.00;69.10;;;;;;5016193;28;20048;-21
2022/01/11 05:38:13;;;;;;;2.00;1.90;;;16.00;69.00;;;;;;5016968;28;20050;-20
2022/01/11 05:40:39;;;;;;;1.80;1.70;;;16.00;69.00;;;;;;5015591;28;20128;-22
2022/01/11 05:43:06;;;;;;;1.52;1.50;;;16.10;69.00;;;;;;5016679;28;20045;-20
2022/01/11 05:45:31;;;;;;;1.58;1.48;;;16.10;69.00;;;;;;5014750;28;20046;-20
2022/01/11 05:47:58;;;;;;;1.70;1.60;;;16.10;68.90;;;;;;5017502;28;20050;-21
2022/01/11 05:50:23;;;;;;;1.83;1.73;;;16.10;68.80;;;;;;5036121;28;20068;-21
2022/01/11 05:52:49;;;;;;;1.60;1.50;;;16.10;68.80;;;;;;5026594;28;20096;-19
2022/01/11 05:55:15;;;;;;;1.73;1.63;;;16.10;68.70;;;;;;4999294;28;20054;-21
2022/01/11 05:57:41;;;;;;;1.65;1.58;;;16.00;69.10;;;;;;4995808;28;20046;-19
2022/01/11 06:00:09;;;;;;;1.60;1.50;;;16.00;69.60;;;;;;4996061;28;20073;-21
2022/01/11 06:02:35;;;;;;;1.45;1.35;;;15.90;70.00;;;;;;5001600;28;20451;-20
2022/01/11 06:05:01;;;;;;;2.95;1.80;;;15.90;70.60;;;;;;5000019;28;20057;-19
2022/01/11 06:07:26;;;;;;;1.70;1.60;;;15.90;71.50;;;;;;5008982;28;20044;-18
2022/01/11 06:09:52;;;;;;;1.85;1.75;;;15.90;71.70;;;;;;5035270;28;20053;-20
2022/01/11 06:12:17;;;;;;;2.60;1.90;;;16.00;71.70;;;;;;5035743;28;20075;-20
2022/01/11 06:14:43;;;;;;;1.60;1.50;;;16.00;71.30;;;;;;5035460;28;20064;-21
2022/01/11 06:17:08;;;;;;;1.95;1.55;;;16.10;71.20;;;;;;5034931;28;20049;-21
2022/01/11 06:19:34;;;;;;;1.60;1.50;;;16.10;70.90;;;;;;5013606;28;20157;-19
2022/01/11 06:22:00;;;;;;;2.58;1.77;;;16.20;70.90;;;;;;5014697;28;20046;-21
2022/01/11 06:24:25;;;;;;;2.08;1.98;;;16.20;70.90;;;;;;5016042;28;20041;-20
2022/01/11 06:26:51;;;;;;;2.83;1.80;;;16.10;71.30;;;;;;5015341;28;20095;-20
2022/01/11 06:29:16;;;;;;;2.30;2.10;;;16.10;70.90;;;;;;5015992;28;20080;-19
2022/01/11 06:31:42;;;;;;;2.17;2.08;;;16.00;71.20;;;;;;5000901;28;20121;-23
2022/01/11 06:34:08;;;;;;;2.60;2.40;;;16.00;71.30;;;;;;4994992;28;20373;-18
2022/01/11 06:36:33;;;;;;;2.28;2.08;;;16.00;71.20;;;;;;4995031;28;20069;-22
2022/01/11 06:38:59;;;;;;;4.10;2.35;;;16.00;71.20;;;;;;4996132;28;20728;-21
2022/01/11 06:41:24;;;;;;;2.63;2.42;;;16.00;71.30;;;;;;4995396;28;20042;-21
2022/01/11 06:43:52;;;;;;;3.58;2.60;;;16.00;71.20;;;;;;4996239;28;20141;-19
2022/01/11 06:46:18;;;;;;;6.63;3.65;;;16.10;71.40;;;;;;4995026;28;20035;-19
2022/01/11 06:48:44;;;;;;;7.40;4.28;;;16.20;71.50;;;;;;4994902;28;20058;-18
2022/01/11 06:51:09;;;;;;;10.52;4.82;;;16.30;70.80;;;;;;4995743;28;20509;-20
2022/01/11 06:53:35;;;;;;;9.90;5.07;;;16.30;71.10;;;;;;4995264;28;20047;-20
2022/01/11 06:56:00;;;;;;;9.25;4.40;;;16.30;71.20;;;;;;4996042;28;20047;-19
2022/01/11 06:58:26;;;;;;;9.02;4.22;;;16.30;70.90;;;;;;4995491;28;20073;-18
2022/01/11 07:00:51;;;;;;;14.55;4.68;;;16.30;70.80;;;;;;4995953;28;20492;-20
2022/01/11 07:03:18;;;;;;;5.72;3.60;;;16.20;70.90;;;;;;4995834;28;20057;-20
2022/01/11 07:05:44;;;;;;;8.23;4.35;;;16.30;71.10;;;;;;5005970;28;20569;-21
2022/01/11 07:08:10;;;;;;;7.32;3.88;;;16.30;70.90;;;;;;5015573;28;20124;-20
2022/01/11 07:10:36;;;;;;;7.30;4.40;;;16.30;70.80;;;;;;5014660;28;20072;-20
2022/01/11 07:13:02;;;;;;;6.53;4.15;;;16.40;71.50;;;;;;5014324;28;20049;-20
2022/01/11 07:15:28;;;;;;;6.20;4.00;;;16.30;70.60;;;;;;5002289;28;20043;-19
2022/01/11 07:17:54;;;;;;;7.50;3.80;;;16.30;70.90;;;;;;5002955;28;20312;-20
2022/01/11 07:20:20;;;;;;;5.63;3.28;;;16.30;70.90;;;;;;5005576;28;20311;-21
2022/01/11 07:22:45;;;;;;;6.47;3.70;;;16.30;71.20;;;;;;5011948;28;20065;-21
2022/01/11 07:25:11;;;;;;;4.03;3.15;;;16.20;71.30;;;;;;4995891;28;20038;-20
2022/01/11 07:27:37;;;;;;;7.00;3.53;;;16.20;71.40;;;;;;4995093;28;20047;-21
2022/01/11 07:30:06;;;;;;;7.07;3.88;;;16.20;71.30;;;;;;4995825;28;20046;-21
2022/01/11 07:32:33;;;;;;;4.22;3.30;;;16.30;71.30;;;;;;4997676;28;20046;-18
2022/01/11 07:34:58;;;;;;;4.22;3.15;;;16.30;71.20;;;;;;5015231;28;20144;-21
2022/01/11 07:37:25;;;;;;;5.05;3.60;;;16.30;71.10;;;;;;5005688;28;20057;-19
2022/01/11 07:39:50;;;;;;;4.85;3.08;;;16.40;71.10;;;;;;4970861;28;20043;-19
2022/01/11 07:42:16;;;;;;;6.70;4.47;;;16.30;70.70;;;;;;4971728;28;20065;-19
2022/01/11 07:44:43;;;;;;;5.05;4.35;;;16.30;70.60;;;;;;4977021;28;20050;-20
2022/01/11 07:47:08;;;;;;;6.10;5.50;;;16.30;70.50;;;;;;4968792;28;20134;-22
2022/01/11 07:49:34;;;;;;;7.15;5.45;;;16.40;70.90;;;;;;4966505;28;20469;-18
2022/01/11 07:52:00;;;;;;;4.80;4.40;;;16.40;70.80;;;;;;4973598;28;20077;-19
2022/01/11 07:54:25;;;;;;;6.03;5.35;;;16.40;70.50;;;;;;4972970;28;20093;-20
2022/01/11 07:56:51;;;;;;;7.63;5.45;;;16.50;70.50;;;;;;4971587;28;20050;-23
2022/01/11 07:59:17;;;;;;;6.30;5.65;;;16.50;70.50;;;;;;4971762;28;20072;-21
2022/01/11 08:01:42;;;;;;;6.50;5.47;;;16.50;70.60;;;;;;4976673;28;20050;-21
2022/01/11 08:04:08;;;;;;;9.40;5.65;;;16.50;70.40;;;;;;4973507;28;20042;-21
2022/01/11 08:06:33;;;;;;;5.43;4.50;;;16.60;70.40;;;;;;4973640;28;20050;-21
2022/01/11 08:09:00;;;;;;;6.38;5.40;;;16.60;70.20;;;;;;4983194;28;20430;-21
2022/01/11 08:11:26;;;;;;;7.28;5.15;;;16.60;70.30;;;;;;4972461;28;20050;-22
2022/01/11 08:13:52;;;;;;;7.10;5.18;;;16.60;70.30;;;;;;4970825;28;20081;-21
2022/01/11 08:16:17;;;;;;;5.55;4.80;;;16.60;70.30;;;;;;4978566;28;20079;-22
2022/01/11 08:18:43;;;;;;;7.68;4.95;;;16.70;70.20;;;;;;4979367;28;20117;-21
2022/01/11 08:21:09;;;;;;;5.93;5.32;;;16.70;70.40;;;;;;4978378;28;20053;-20
2022/01/11 08:23:34;;;;;;;7.82;5.20;;;16.70;70.20;;;;;;4985263;28;20058;-22
2022/01/11 08:26:00;;;;;;;6.35;4.78;;;16.70;70.40;;;;;;4997618;28;20054;-21
2022/01/11 08:28:26;;;;;;;5.05;4.65;;;16.80;70.40;;;;;;5003160;28;20403;-21
2022/01/11 08:30:52;;;;;;;7.20;5.15;;;16.80;70.40;;;;;;5018214;28;20081;-22
2022/01/11 08:33:17;;;;;;;5.78;4.57;;;16.80;70.30;;;;;;5018541;28;20041;-23
2022/01/11 08:35:43;;;;;;;5.82;4.95;;;16.80;70.50;;;;;;5016880;28;20046;-20
2022/01/11 08:38:09;;;;;;;5.03;4.53;;;16.80;70.40;;;;;;5019101;28;20022;-19
2022/01/11 08:40:34;;;;;;;5.68;4.90;;;16.80;70.30;;;;;;5018953;28;20036;-21
2022/01/11 08:43:03;;;;;;;5.50;4.57;;;16.80;70.30;;;;;;5018805;28;20498;-21
2022/01/11 08:45:28;;;;;;;4.80;4.32;;;16.90;70.40;;;;;;5017919;28;20080;-21
2022/01/11 08:47:54;;;;;;;5.50;5.00;;;16.90;70.30;;;;;;5018848;28;20026;-23
2022/01/11 08:50:19;;;;;;;5.10;4.70;;;16.90;70.20;;;;;;5018270;28;20112;-23
2022/01/11 08:52:45;;;;;;;5.40;4.90;;;16.90;70.20;;;;;;5018456;28;20029;-22
2022/01/11 08:55:11;;;;;;;7.00;5.13;;;16.80;70.30;;;;;;5018645;28;20076;-21
2022/01/11 08:57:37;;;;;;;7.45;5.07;;;16.80;70.50;;;;;;5018219;28;20040;-19
2022/01/11 09:00:06;;;;;;;5.22;4.72;;;16.90;70.40;;;;;;5016288;28;20042;-20
2022/01/11 09:02:35;;;;;;;9.95;5.32;;;16.90;70.40;;;;;;5017510;28;20045;-20
2022/01/11 09:05:01;;;;;;;5.38;4.88;;;16.90;70.30;;;;;;5014410;28;20495;-19
2022/01/11 09:07:26;;;;;;;4.32;3.97;;;16.90;70.20;;;;;;5017165;28;20025;-19
2022/01/11 09:09:52;;;;;;;4.32;4.03;;;16.90;70.30;;;;;;5016762;28;20465;-19
2022/01/11 09:12:19;;;;;;;5.32;4.13;;;16.90;70.50;;;;;;5005166;28;20042;-22
2022/01/11 09:14:44;;;;;;;4.35;3.95;;;16.90;70.40;;;;;;4992862;28;20125;-21
2022/01/11 09:17:11;;;;;;;5.32;4.47;;;16.90;70.60;;;;;;4991541;28;20092;-21
2022/01/11 09:19:37;;;;;;;4.88;4.40;;;16.90;70.50;;;;;;4988912;28;20027;-21
2022/01/11 09:22:02;;;;;;;3.97;3.67;;;16.90;70.40;;;;;;4983927;28;20049;-21
2022/01/11 09:24:29;;;;;;;4.45;4.05;;;16.90;70.40;;;;;;4998818;28;20026;-20
2022/01/11 09:26:59;;;;;;;4.72;4.22;;;16.90;70.30;;;;;;4986453;28;20038;-20
2022/01/11 09:29:25;;;;;;;4.28;3.97;;;16.90;70.30;;;;;;4977132;28;20031;-21
2022/01/11 09:31:51;;;;;;;4.00;3.80;;;16.90;70.30;;;;;;4977534;28;20101;-22
2022/01/11 09:34:17;;;;;;;3.83;3.53;;;16.90;70.60;;;;;;4987284;28;20110;-22
2022/01/11 09:36:42;;;;;;;4.20;3.90;;;16.90;70.50;;;;;;4998575;28;20038;-22
2022/01/11 09:39:08;;;;;;;4.50;4.07;;;16.80;70.60;;;;;;5002139;28;20078;-20
2022/01/11 09:41:34;;;;;;;4.38;4.05;;;16.80;70.60;;;;;;4998199;28;20023;-22
2022/01/11 09:44:00;;;;;;;3.75;3.45;;;16.90;70.50;;;;;;4996450;28;20144;-21
2022/01/11 09:46:26;;;;;;;4.45;4.05;;;16.90;70.40;;;;;;4997556;28;20089;-20
2022/01/11 09:48:51;;;;;;;4.15;3.80;;;16.90;70.60;;;;;;4997440;28;20034;-19
2022/01/11 09:51:17;;;;;;;3.72;3.45;;;16.80;70.60;;;;;;4996378;28;20026;-20
2022/01/11 09:53:42;;;;;;;4.30;3.90;;;16.80;70.70;;;;;;4994947;28;20050;-21
2022/01/11 09:56:08;;;;;;;3.85;3.55;;;16.80;70.70;;;;;;4997478;28;20487;-22
2022/01/11 09:58:35;;;;;;;3.58;3.33;;;16.80;70.60;;;;;;4996034;28;20543;-21
2022/01/11 10:01:01;;;;;;;4.18;3.88;;;16.80;70.70;;;;;;4995164;28;20049;-21
2022/01/11 10:03:27;;;;;;;3.80;3.40;;;16.80;70.90;;;;;;4996683;28;20102;-22
2022/01/11 10:05:52;;;;;;;3.88;3.50;;;16.80;70.80;;;;;;4995924;28;20488;-20
2022/01/11 10:08:27;;;;;;;3.60;3.30;;;16.80;70.50;;;;;;4996640;28;20054;-19
2022/01/11 10:10:53;;;;;;;4.15;3.85;;;16.80;70.70;;;;;;4996520;28;20050;-22
2022/01/11 10:13:32;;;;;;;3.63;3.22;;;16.80;70.80;;;;;;4995795;28;20054;-25
2022/01/11 10:16:19;;;;;;;3.70;3.40;;;16.80;70.80;;;;;;4996194;28;20053;-21
2022/01/11 10:18:45;;;;;;;3.75;3.47;;;16.80;70.80;;;;;;4997386;28;20050;-22
2022/01/11 10:21:40;;;;;;;3.72;3.42;;;16.80;70.70;;;;;;4996337;28;20494;-26
2022/01/11 10:24:22;;;;;;;3.63;3.03;;;16.80;70.70;;;;;;4995934;28;20042;-22
2022/01/11 10:26:47;;;;;;;3.63;3.38;;;16.80;70.70;;;;;;4996174;28;20046;-25
2022/01/11 10:29:23;;;;;;;3.75;3.45;;;16.80;70.70;;;;;;4995803;28;20045;-20
2022/01/11 10:31:50;;;;;;;3.67;3.42;;;16.80;70.90;;;;;;5015928;28;20099;-25
2022/01/11 10:34:15;;;;;;;4.22;3.92;;;16.80;71.10;;;;;;5016698;28;20018;-20
2022/01/11 10:36:44;;;;;;;3.70;3.35;;;16.80;70.90;;;;;;5014945;28;20041;-21
2022/01/11 10:39:34;;;;;;;3.92;3.35;;;16.90;70.70;;;;;;5016698;28;20036;-26
2022/01/11 10:42:00;;;;;;;3.65;3.33;;;16.90;70.50;;;;;;5016895;28;20022;-21
2022/01/11 10:44:42;;;;;;;3.55;3.25;;;16.90;70.30;;;;;;5017168;28;20065;-25
2022/01/11 10:47:07;;;;;;;4.55;3.30;;;16.90;70.50;;;;;;5015843;28;20438;-22
2022/01/11 10:49:35;;;;;;;3.50;3.20;;;16.90;70.70;;;;;;5012132;28;20037;-24
2022/01/11 10:52:20;;;;;;;3.30;3.10;;;16.90;70.70;;;;;;5023360;28;20572;-22
2022/01/11 10:54:46;;;;;;;3.50;3.17;;;16.80;70.70;;;;;;5021201;28;20499;-23
2022/01/11 10:57:20;;;;;;;3.65;3.20;;;16.80;70.90;;;;;;5016615;28;20029;-23
2022/01/11 11:00:09;;;;;;;3.00;2.80;;;16.80;71.00;;;;;;5016607;28;20034;-21
2022/01/11 11:02:34;;;;;;;4.30;2.95;;;16.80;71.20;;;;;;5016631;28;20030;-22
2022/01/11 11:05:20;;;;;;;3.53;3.33;;;16.80;71.00;;;;;;5013919;28;20061;-20
2022/01/11 11:07:54;;;;;;;3.90;3.70;;;16.80;71.00;;;;;;5013548;28;20022;-23
2022/01/11 11:10:34;;;;;;;4.25;3.95;;;16.90;71.00;;;;;;5012934;28;20081;-24
2022/01/11 11:12:59;;;;;;;3.95;3.65;;;16.90;71.10;;;;;;5013608;28;20054;-21
2022/01/11 11:15:36;;;;;;;3.80;3.60;;;16.80;71.00;;;;;;5001972;28;20407;-21
2022/01/11 11:18:03;;;;;;;3.60;3.40;;;16.80;71.20;;;;;;4995741;28;20402;-20
2022/01/11 11:20:30;;;;;;;3.45;3.25;;;16.80;71.30;;;;;;4995588;28;20475;-21
2022/01/11 11:22:55;;;;;;;3.28;3.08;;;16.90;71.10;;;;;;4996436;28;20050;-20
2022/01/11 11:25:21;;;;;;;3.58;3.28;;;16.90;71.10;;;;;;4995611;28;20027;-24
2022/01/11 11:27:47;;;;;;;3.55;3.25;;;16.80;71.50;;;;;;4989426;28;20176;-19
2022/01/11 11:30:13;;;;;;;5.10;3.80;;;16.70;71.60;;;;;;4993356;28;20042;-21
2022/01/11 11:32:38;;;;;;;3.58;3.33;;;16.70;71.70;;;;;;4995177;28;20041;-21
2022/01/11 11:35:04;;;;;;;4.20;3.80;;;16.70;71.70;;;;;;4994834;28;20049;-19
2022/01/11 11:37:35;;;;;;;3.87;3.60;;;16.70;71.70;;;;;;4647922;28;10000139;-22
2022/01/11 11:40:05;;;;;;;3.53;3.33;;;16.70;71.70;;;;;;4993769;28;20018;-22
2022/01/11 11:42:30;;;;;;;3.20;3.00;;;16.70;71.70;;;;;;5009918;28;20034;-19
2022/01/11 11:45:00;;;;;;;3.50;3.30;;;16.70;71.70;;;;;;4992887;28;20678;-22
2022/01/11 11:47:34;;;;;;;3.40;3.15;;;16.70;71.70;;;;;;4995016;28;20093;-19
2022/01/11 11:50:00;;;;;;;;;;;16.70;71.70;;;;;;4994310;28;20109;-21
2022/01/11 11:52:53;;;;;;;3.35;3.05;;;16.70;71.70;;;;;;4995953;28;20630;-19
2022/01/11 11:55:24;;;;;;;3.55;3.30;;;16.70;71.70;;;;;;4994285;28;20069;-21
2022/01/11 11:57:52;;;;;;;3.20;3.00;;;16.80;71.60;;;;;;4994980;28;20576;-19
2022/01/11 12:00:17;;;;;;;3.70;3.40;;;16.70;71.70;;;;;;4995058;28;20054;-22
2022/01/11 12:02:45;;;;;;;3.30;3.00;;;16.70;71.70;;;;;;4994009;28;20074;-22
2022/01/11 12:05:14;;;;;;;3.35;3.15;;;16.70;71.70;;;;;;4994883;28;20046;-21
2022/01/11 12:07:43;;;;;;;3.92;3.63;;;16.70;71.70;;;;;;4996351;28;20053;-22
2022/01/11 12:10:15;;;;;;;3.92;3.72;;;16.70;71.70;;;;;;4994283;28;20137;-21
2022/01/11 12:12:40;;;;;;;4.95;4.50;;;16.70;71.70;;;;;;5009300;28;20030;-17
2022/01/11 12:15:21;;;;;;;5.38;4.97;;;16.70;71.80;;;;;;4994794;28;20095;-21
2022/01/11 12:17:59;;;;;;;5.88;5.47;;;16.70;71.70;;;;;;4995580;28;20119;-20
2022/01/11 12:20:40;;;;;;;6.72;6.22;;;16.70;71.70;;;;;;4996784;28;20406;-22
2022/01/11 12:23:06;;;;;;;7.18;6.57;;;16.70;71.70;;;;;;5013554;28;20042;-23
2022/01/11 12:25:41;;;;;;;7.80;7.18;;;16.70;71.70;;;;;;5013209;28;20042;-26
2022/01/11 12:28:16;;;;;;;8.93;8.23;;;16.70;72.50;;;;;;5014735;28;20034;-22
2022/01/11 12:30:42;;;;;;;9.48;8.57;;;16.80;71.70;;;;;;5030085;28;20030;-21
2022/01/11 12:33:16;;;;;;;10.25;9.32;;;16.80;71.80;;;;;;5015410;28;20038;-21
2022/01/11 12:35:56;;;;;;;10.82;9.73;;;16.80;72.00;;;;;;5015242;28;20053;-21
2022/01/11 12:38:22;;;;;;;9.15;8.38;;;16.80;71.70;;;;;;5014822;28;20037;-20
2022/01/11 12:40:47;;;;;;;9.57;8.68;;;16.90;71.50;;;;;;5014840;28;20029;-21
2022/01/11 12:43:42;;;;;;;10.13;9.18;;;16.80;71.70;;;;;;5015179;28;20034;-25
2022/01/11 12:46:09;;;;;;;9.65;8.75;;;16.80;71.80;;;;;;5013536;28;20046;-24
2022/01/11 12:48:50;;;;;;;8.85;8.05;;;16.80;71.80;;;;;;5013688;28;20096;-25
2022/01/11 12:51:26;;;;;;;8.55;7.85;;;16.80;72.10;;;;;;5012732;28;20144;-23
2022/01/11 12:54:11;;;;;;;10.50;9.50;;;16.80;71.80;;;;;;5017014;28;20137;-20